New River MCAS, H, Mccutcheon Fld, Airport Jacksonville US
ICAO: KNCA
IATA: NCA
Category: Medium
Scheduled Services: No

Elevation: 26 ft
TransAlt. 18000 ft.

Airport Communications:
CHERRY POINT APP/DEP:119.35
ARRIVAL:124.85
ATIS:28.832
CLNC DEL:23.902
GND:121.8
OPS:23.64
PMSV METRO:24.477
TWR:120

KNCA Zoom In..

If you have problems with the map follow the link
https://www.worldairports.se/pages/airport.php?
ICAO=KNCA

Runways:

(A) RW 01 length 4790 ft width 150 ft
ILS 111.10 / hdg 8

(B) RW 05 length 5114 ft width 150 ft
---- / hdg 53

(C) RW 19 length 4790 ft width 150 ft
---- / hdg 188

(D) RW 23 length 5114 ft width 150 ft
---- / hdg 233

Location; KNCA
Day. 18 / Time. 01.56 Zulu
* Altimeter: 29.98
* Temperature: 10° c. 50°f.
* Wind from: 000° Speed 00 kn.
Dewpoint: 08° c.
Visibility: 10 Statute Miles.
Clouds: Scattered 1300 ft.
Clouds: Broken 1800 ft.
Clouds: Overcast 11000 ft.
Conditions: Light Rain.

KNCA 180156Z AUTO 00000KT 10SM -RA SCT013 BKN018 OVC110 10/08 A2998 RMK AO2 RAE01B27 SLP153 P0000 T01000078


Wind - Calm.

 
 
jpsmedia.com for Web Design worldairports.se 2019   terms of use